Time;durP1;ratioP1;P1;durP2;ratioP2;P2;SDS_P1;SDS_P2;PMS_P1;PMS_P2;Temp;Humidity;BMP_temperature;BMP_pressure;BME280_temperature;BME280_humidity;BME280_pressure;Samples;Min_cycle;Max_cycle;Signal;HPM_P1;HPM_P2
2023/10/20 00:01:28;;;;;;;90.80;85.75;;;16.30;99.90;;;;;;4951487;28;20043;-70
2023/10/20 00:03:54;;;;;;;92.70;87.90;;;16.30;99.90;;;;;;4955180;28;20039;-69
2023/10/20 00:06:20;;;;;;;96.03;91.00;;;16.40;99.90;;;;;;4957872;28;20027;-70
2023/10/20 00:08:47;;;;;;;86.50;81.90;;;16.40;99.90;;;;;;4976875;28;20039;-70
2023/10/20 00:11:13;;;;;;;98.07;92.63;;;16.40;99.90;;;;;;4976082;28;20049;-69
2023/10/20 00:13:40;;;;;;;80.97;76.80;;;16.30;99.90;;;;;;4976202;28;20037;-70
2023/10/20 00:16:06;;;;;;;92.05;87.20;;;16.40;99.90;;;;;;4967329;28;20059;-70
2023/10/20 00:18:32;;;;;;;83.85;79.47;;;16.40;99.90;;;;;;4974365;28;20471;-70
2023/10/20 00:20:58;;;;;;;90.53;85.60;;;16.50;99.90;;;;;;4975924;28;20027;-69
2023/10/20 00:23:26;;;;;;;77.45;73.28;;;16.40;99.90;;;;;;4966244;28;20114;-68
2023/10/20 00:25:52;;;;;;;72.75;68.95;;;16.50;99.90;;;;;;4961936;28;20035;-69
2023/10/20 00:28:18;;;;;;;76.30;72.30;;;16.50;99.90;;;;;;4975080;28;20045;-68
2023/10/20 00:30:44;;;;;;;71.82;67.57;;;16.50;99.90;;;;;;4970397;28;20040;-68
2023/10/20 00:33:10;;;;;;;85.47;80.97;;;16.50;99.90;;;;;;4956650;29;20035;-69
2023/10/20 00:35:36;;;;;;;85.82;81.63;;;16.50;99.90;;;;;;4959393;28;20053;-68
2023/10/20 00:38:03;;;;;;;85.07;80.78;;;16.40;99.90;;;;;;4975415;28;20411;-69
2023/10/20 00:40:30;;;;;;;99.13;94.18;;;16.40;99.90;;;;;;4972609;28;20042;-69
2023/10/20 00:42:56;;;;;;;87.78;82.75;;;16.40;99.90;;;;;;4955720;29;20039;-68
2023/10/20 00:45:22;;;;;;;92.65;87.95;;;16.30;99.90;;;;;;4955337;28;20468;-69
2023/10/20 00:47:48;;;;;;;110.60;104.30;;;16.30;99.90;;;;;;4956182;29;20042;-68
2023/10/20 00:50:14;;;;;;;101.13;95.95;;;16.30;99.90;;;;;;4956067;28;20031;-68
2023/10/20 00:52:46;;;;;;;90.07;85.13;;;16.30;99.90;;;;;;4954660;29;20517;-68
2023/10/20 00:55:13;;;;;;;85.70;81.07;;;16.30;99.90;;;;;;4954528;28;20042;-68
2023/10/20 00:57:39;;;;;;;92.90;87.82;;;16.30;99.90;;;;;;4954719;28;20042;-68
2023/10/20 01:00:08;;;;;;;95.90;90.60;;;16.30;99.90;;;;;;4954468;28;20035;-68
2023/10/20 01:02:38;;;;;;;83.53;79.22;;;16.20;99.90;;;;;;4955756;28;20054;-68
2023/10/20 01:05:05;;;;;;;93.75;88.78;;;16.30;99.90;;;;;;4955801;29;20404;-68
2023/10/20 01:07:32;;;;;;;88.95;84.05;;;16.30;99.90;;;;;;4970112;28;20052;-68
2023/10/20 01:10:04;;;;;;;90.75;86.03;;;16.20;99.90;;;;;;4955704;28;20058;-69
2023/10/20 01:12:31;;;;;;;97.80;92.50;;;16.10;99.90;;;;;;4955099;28;20059;-68
2023/10/20 01:15:01;;;;;;;91.63;86.90;;;16.00;99.90;;;;;;4954588;28;20042;-68
2023/10/20 01:17:28;;;;;;;94.60;89.78;;;16.00;99.90;;;;;;4963145;28;20515;-68
2023/10/20 01:19:54;;;;;;;103.03;97.72;;;15.90;99.90;;;;;;4974805;28;20514;-69
2023/10/20 01:22:20;;;;;;;86.05;81.90;;;15.70;99.90;;;;;;4974161;28;20027;-68
2023/10/20 01:24:46;;;;;;;102.45;97.18;;;15.60;99.90;;;;;;4974663;28;20027;-68
2023/10/20 01:27:12;;;;;;;91.30;86.22;;;15.70;99.90;;;;;;4973856;28;20031;-68
2023/10/20 01:29:38;;;;;;;101.68;96.43;;;15.70;99.90;;;;;;4955168;28;20031;-68
2023/10/20 01:32:04;;;;;;;80.97;76.60;;;15.60;99.90;;;;;;4970076;28;20054;-70
2023/10/20 01:34:31;;;;;;;84.68;79.82;;;15.60;99.90;;;;;;4974557;28;20484;-69
2023/10/20 01:36:57;;;;;;;84.88;80.30;;;15.60;99.90;;;;;;4974460;28;20035;-69
2023/10/20 01:39:23;;;;;;;93.75;88.97;;;15.60;99.90;;;;;;4965299;28;20039;-69
2023/10/20 01:41:49;;;;;;;79.15;74.75;;;15.60;99.90;;;;;;4954862;28;20035;-70
2023/10/20 01:44:15;;;;;;;78.53;74.38;;;15.70;99.90;;;;;;4955114;28;20120;-69
2023/10/20 01:46:49;;;;;;;82.03;77.65;;;15.70;99.90;;;;;;4954739;28;20039;-69
2023/10/20 01:49:16;;;;;;;83.30;78.85;;;15.70;99.90;;;;;;4954902;28;20484;-69
2023/10/20 01:51:42;;;;;;;80.47;76.25;;;15.70;99.90;;;;;;4956054;28;20028;-69
2023/10/20 01:54:08;;;;;;;78.40;74.25;;;15.70;99.90;;;;;;4953896;29;20381;-70
2023/10/20 01:56:34;;;;;;;80.20;75.93;;;15.60;99.90;;;;;;4965731;28;20054;-69
2023/10/20 01:59:00;;;;;;;86.00;81.30;;;15.60;99.90;;;;;;4973889;28;20031;-69
2023/10/20 02:01:30;;;;;;;81.70;77.53;;;15.50;99.90;;;;;;4963348;28;20039;-70
2023/10/20 02:03:56;;;;;;;86.25;81.68;;;15.40;99.90;;;;;;4954923;29;20031;-69
2023/10/20 02:06:22;;;;;;;70.10;66.32;;;15.40;99.90;;;;;;4954681;28;20495;-69
2023/10/20 02:08:48;;;;;;;80.15;75.78;;;15.50;99.90;;;;;;4954989;29;20027;-69
2023/10/20 02:11:15;;;;;;;94.55;89.22;;;15.50;99.90;;;;;;4954342;28;20515;-69
2023/10/20 02:13:42;;;;;;;89.70;84.75;;;15.50;99.90;;;;;;4954778;28;20485;-69
2023/10/20 02:16:10;;;;;;;84.40;80.10;;;15.50;99.90;;;;;;4953800;28;20047;-69
2023/10/20 02:18:36;;;;;;;83.43;78.72;;;15.60;99.90;;;;;;4972989;28;20039;-69
2023/10/20 02:21:03;;;;;;;82.72;78.38;;;15.60;99.90;;;;;;4972163;28;20046;-70
2023/10/20 02:23:34;;;;;;;79.65;75.35;;;15.60;99.90;;;;;;4973816;28;20481;-70
2023/10/20 02:26:02;;;;;;;60.83;57.47;;;15.60;99.90;;;;;;4966679;28;20046;-70
2023/10/20 02:28:28;;;;;;;77.93;73.57;;;15.50;99.90;;;;;;4954556;28;20035;-69
2023/10/20 02:30:55;;;;;;;70.45;66.60;;;15.40;99.90;;;;;;4960122;28;20038;-69
2023/10/20 02:33:21;;;;;;;77.88;73.78;;;15.30;99.90;;;;;;4973507;28;20400;-69
2023/10/20 02:35:48;;;;;;;73.80;69.80;;;15.20;99.90;;;;;;4973215;28;20046;-69
2023/10/20 02:38:14;;;;;;;81.60;77.20;;;15.20;99.90;;;;;;4974078;28;20022;-70
2023/10/20 02:40:48;;;;;;;87.72;83.05;;;15.20;99.90;;;;;;4968924;28;20535;-69
2023/10/20 02:43:14;;;;;;;106.85;101.35;;;15.20;99.90;;;;;;4954483;29;20023;-70
2023/10/20 02:45:53;;;;;;;89.25;84.68;;;15.20;99.90;;;;;;4953757;28;20058;-69
2023/10/20 02:48:19;;;;;;;83.18;78.85;;;15.30;99.90;;;;;;4954459;29;20412;-69
2023/10/20 02:50:45;;;;;;;66.70;63.28;;;15.30;99.90;;;;;;4954077;28;20611;-69
2023/10/20 02:53:13;;;;;;;77.85;73.43;;;15.30;99.90;;;;;;4953555;28;20038;-70
2023/10/20 02:55:40;;;;;;;68.40;64.90;;;15.30;99.90;;;;;;4953766;28;20409;-70
2023/10/20 02:58:07;;;;;;;86.82;82.22;;;15.30;99.90;;;;;;4959919;28;20037;-69
2023/10/20 03:00:33;;;;;;;72.07;67.95;;;15.30;99.90;;;;;;4968544;28;20035;-70
2023/10/20 03:03:00;;;;;;;60.58;57.28;;;15.40;99.90;;;;;;4953998;29;20034;-69
2023/10/20 03:05:32;;;;;;;64.75;61.28;;;15.50;99.90;;;;;;4954031;28;20028;-70
2023/10/20 03:07:58;;;;;;;63.00;59.40;;;15.40;99.90;;;;;;4953986;28;20364;-69
2023/10/20 03:10:25;;;;;;;66.32;62.20;;;15.30;99.90;;;;;;4953579;28;20035;-69
2023/10/20 03:12:51;;;;;;;76.55;72.25;;;15.30;99.90;;;;;;4954217;29;20365;-69
2023/10/20 03:15:17;;;;;;;84.53;80.32;;;15.30;99.90;;;;;;4953182;28;20027;-68
2023/10/20 03:17:43;;;;;;;78.43;74.03;;;15.30;99.90;;;;;;4965117;28;20043;-70
2023/10/20 03:20:14;;;;;;;92.47;87.72;;;15.30;99.90;;;;;;4973059;28;20039;-68
2023/10/20 03:22:44;;;;;;;97.93;92.47;;;15.30;99.90;;;;;;4972484;28;20054;-68
2023/10/20 03:25:10;;;;;;;84.43;79.88;;;15.30;99.90;;;;;;4973404;28;20058;-69
2023/10/20 03:27:37;;;;;;;87.97;82.63;;;15.30;99.90;;;;;;4967885;28;20092;-68
2023/10/20 03:30:08;;;;;;;82.65;78.15;;;15.30;99.90;;;;;;4968405;28;20042;-67
2023/10/20 03:32:35;;;;;;;71.50;67.60;;;15.40;99.90;;;;;;4964349;28;20027;-67
2023/10/20 03:35:01;;;;;;;62.00;58.58;;;15.40;99.90;;;;;;4972937;28;20039;-68
2023/10/20 03:37:27;;;;;;;54.67;51.28;;;15.50;99.90;;;;;;4977618;28;20047;-67
2023/10/20 03:39:54;;;;;;;70.63;66.75;;;15.50;99.90;;;;;;4976431;28;20037;-67
2023/10/20 03:42:21;;;;;;;75.35;70.85;;;15.40;99.90;;;;;;4976194;28;20030;-67
2023/10/20 03:44:48;;;;;;;57.58;54.00;;;15.40;99.90;;;;;;4976804;28;20027;-67
2023/10/20 03:47:17;;;;;;;70.75;67.03;;;15.30;99.90;;;;;;4975994;28;20038;-67
2023/10/20 03:49:43;;;;;;;74.45;69.63;;;15.30;99.90;;;;;;4976516;28;20031;-67
2023/10/20 03:52:11;;;;;;;75.07;70.90;;;15.40;99.90;;;;;;4959980;28;20048;-67
2023/10/20 03:54:41;;;;;;;73.63;69.45;;;15.40;99.90;;;;;;4956864;28;20066;-67
2023/10/20 03:57:07;;;;;;;56.15;53.17;;;15.50;99.90;;;;;;4956694;28;20047;-67
2023/10/20 03:59:34;;;;;;;57.15;53.60;;;15.50;99.90;;;;;;4976525;28;20027;-67
2023/10/20 04:02:01;;;;;;;59.70;56.30;;;15.50;99.90;;;;;;4966390;28;20043;-67
2023/10/20 04:04:28;;;;;;;61.05;57.72;;;15.60;99.90;;;;;;4956833;29;20023;-67
2023/10/20 04:06:54;;;;;;;53.08;49.78;;;15.60;99.90;;;;;;4970239;28;20053;-67
2023/10/20 04:09:20;;;;;;;64.28;60.45;;;15.60;99.90;;;;;;4975975;28;20027;-67
2023/10/20 04:11:46;;;;;;;61.20;57.30;;;15.60;99.90;;;;;;4962675;28;20046;-67
2023/10/20 04:14:12;;;;;;;69.38;65.38;;;15.60;99.90;;;;;;4956990;29;20027;-67
2023/10/20 04:16:42;;;;;;;72.28;68.32;;;15.60;99.90;;;;;;4955549;28;20434;-67
2023/10/20 04:19:14;;;;;;;77.60;73.63;;;15.60;99.90;;;;;;4956172;28;20489;-67
2023/10/20 04:21:40;;;;;;;72.47;67.97;;;15.60;99.90;;;;;;4956442;28;20038;-67
2023/10/20 04:24:10;;;;;;;68.20;64.35;;;15.50;99.90;;;;;;4956250;28;20529;-72
2023/10/20 04:26:37;;;;;;;54.40;51.27;;;15.50;99.90;;;;;;4957249;28;20523;-71
2023/10/20 04:56:23;;;;;;;72.88;68.95;;;15.00;99.90;;;;;;4948054;29;20055;-70
2023/10/20 05:01:40;;;;;;;73.55;69.30;;;14.70;99.90;;;;;;4941733;28;20412;-70
2023/10/20 05:04:17;;;;;;;86.25;81.43;;;14.70;99.90;;;;;;4934014;29;20508;-70
2023/10/20 05:06:44;;;;;;;70.22;66.10;;;14.70;99.90;;;;;;4946496;29;20496;-70
2023/10/20 05:09:14;;;;;;;78.93;74.47;;;14.80;99.90;;;;;;4952959;29;20048;-71
2023/10/20 05:11:41;;;;;;;92.18;87.10;;;14.60;99.90;;;;;;4949599;29;20389;-69
2023/10/20 05:14:07;;;;;;;91.85;86.68;;;14.50;99.90;;;;;;4953833;29;20132;-70
2023/10/20 05:16:36;;;;;;;82.35;77.60;;;14.50;99.90;;;;;;4941390;28;20414;-70
2023/10/20 05:19:05;;;;;;;91.85;86.72;;;14.50;99.90;;;;;;4945494;29;20043;-70
2023/10/20 05:21:38;;;;;;;125.07;118.38;;;14.50;99.90;;;;;;4953052;29;20436;-70
2023/10/20 05:24:04;;;;;;;81.75;77.38;;;14.60;99.90;;;;;;4952158;29;20528;-70
2023/10/20 05:26:31;;;;;;;173.48;164.20;;;14.60;99.90;;;;;;4941468;29;20060;-68
2023/10/20 05:28:58;;;;;;;82.18;77.07;;;14.50;99.90;;;;;;4950832;29;20916;-68
2023/10/20 05:31:25;;;;;;;77.57;72.95;;;14.40;99.90;;;;;;4944737;28;20393;-68
2023/10/20 05:33:52;;;;;;;142.05;134.00;;;14.30;99.90;;;;;;4954883;29;20374;-68
2023/10/20 05:36:18;;;;;;;87.97;83.15;;;14.30;99.90;;;;;;4955002;28;20480;-68
2023/10/20 05:38:44;;;;;;;59.75;56.33;;;14.50;99.90;;;;;;4955450;28;20508;-68
2023/10/20 05:41:11;;;;;;;71.60;67.88;;;14.60;99.90;;;;;;4955964;28;20034;-68
2023/10/20 05:43:38;;;;;;;58.72;55.28;;;14.60;99.90;;;;;;4954840;28;20051;-68
2023/10/20 05:46:04;;;;;;;58.78;55.35;;;14.60;99.90;;;;;;4962111;28;20046;-68
2023/10/20 05:48:31;;;;;;;64.65;60.45;;;14.70;99.90;;;;;;4973454;28;20041;-68
2023/10/20 05:50:57;;;;;;;62.17;58.20;;;14.60;99.90;;;;;;4968388;28;20031;-68
2023/10/20 05:53:26;;;;;;;60.08;56.65;;;14.60;99.90;;;;;;4973795;28;20062;-68
2023/10/20 05:55:52;;;;;;;45.70;42.90;;;14.70;99.90;;;;;;4972999;28;20391;-68
2023/10/20 05:58:19;;;;;;;50.58;47.22;;;14.70;99.90;;;;;;4966186;28;20526;-68
2023/10/20 06:00:45;;;;;;;46.90;43.85;;;14.80;99.90;;;;;;4968755;28;20039;-68
2023/10/20 06:03:11;;;;;;;52.05;48.70;;;14.80;99.90;;;;;;4962791;28;20046;-68
2023/10/20 06:05:38;;;;;;;67.20;63.60;;;14.80;99.90;;;;;;4969868;28;20038;-68
2023/10/20 06:08:05;;;;;;;59.17;55.35;;;14.60;99.90;;;;;;4954224;28;20055;-68
2023/10/20 06:10:31;;;;;;;65.68;61.67;;;14.40;99.90;;;;;;4956248;28;20495;-68
2023/10/20 06:12:57;;;;;;;70.05;65.85;;;14.20;99.90;;;;;;4956336;28;20027;-68
2023/10/20 06:15:23;;;;;;;62.53;58.78;;;14.30;99.90;;;;;;4961478;28;20049;-68
2023/10/20 06:17:50;;;;;;;65.82;61.88;;;14.40;99.90;;;;;;4972901;28;20061;-68
2023/10/20 06:20:16;;;;;;;64.00;59.35;;;14.50;99.90;;;;;;4972098;28;20038;-68
2023/10/20 06:22:42;;;;;;;67.05;62.88;;;14.50;99.90;;;;;;4956139;28;20047;-68
2023/10/20 06:25:15;;;;;;;73.20;68.95;;;14.60;99.90;;;;;;4973189;28;20050;-68
2023/10/20 06:27:43;;;;;;;63.70;60.20;;;14.50;99.90;;;;;;4954698;29;20027;-70
2023/10/20 06:30:23;;;;;;;61.20;57.78;;;14.50;99.90;;;;;;4954976;28;20472;-69
2023/10/20 06:33:28;;;;;;;71.88;67.13;;;14.40;99.90;;;;;;4971972;28;20376;-70
2023/10/20 06:35:51;;;;;;;63.22;59.28;;;14.40;99.90;;;;;;4969141;28;20043;-69
2023/10/20 06:38:35;;;;;;;47.75;44.47;;;14.30;99.90;;;;;;4971324;28;20500;-69
2023/10/20 06:41:03;;;;;;;135.73;128.52;;;14.20;99.90;;;;;;4967284;28;20050;-69
2023/10/20 06:43:30;;;;;;;117.85;111.28;;;14.20;99.90;;;;;;4967106;28;20051;-69
2023/10/20 06:45:59;;;;;;;106.65;100.82;;;14.20;99.90;;;;;;4972198;28;20039;-69
2023/10/20 06:48:26;;;;;;;81.20;75.90;;;14.20;99.90;;;;;;4966690;28;20039;-69
2023/10/20 06:50:52;;;;;;;103.00;97.30;;;14.20;99.90;;;;;;4959163;28;20066;-69
2023/10/20 06:53:19;;;;;;;71.85;67.68;;;14.10;99.90;;;;;;4968128;28;20050;-69
2023/10/20 06:55:46;;;;;;;79.45;74.57;;;14.20;99.90;;;;;;4972732;28;20038;-69
2023/10/20 06:58:13;;;;;;;58.00;54.33;;;14.10;99.90;;;;;;4968984;28;20055;-69
2023/10/20 07:00:39;;;;;;;65.55;61.72;;;14.10;99.90;;;;;;4956902;28;20043;-70
2023/10/20 07:03:05;;;;;;;69.28;65.05;;;14.10;99.90;;;;;;4973018;28;20034;-69
2023/10/20 07:05:31;;;;;;;46.13;42.67;;;14.10;99.90;;;;;;4972984;28;20487;-70
2023/10/20 07:07:59;;;;;;;44.50;41.47;;;14.20;99.90;;;;;;4973471;28;20087;-69
2023/10/20 07:10:27;;;;;;;40.17;37.50;;;14.00;99.90;;;;;;4970471;28;20051;-69
2023/10/20 07:12:53;;;;;;;41.33;38.67;;;13.90;99.90;;;;;;4960462;28;20038;-69
2023/10/20 07:15:19;;;;;;;86.38;81.15;;;13.90;99.90;;;;;;4976031;28;20046;-69
2023/10/20 07:17:45;;;;;;;40.45;37.72;;;13.90;99.90;;;;;;4976853;28;20523;-69
2023/10/20 07:20:11;;;;;;;45.78;42.67;;;13.90;99.90;;;;;;4976874;28;20042;-70
2023/10/20 07:22:37;;;;;;;47.78;44.75;;;13.90;99.90;;;;;;4957510;28;20050;-69
2023/10/20 07:25:04;;;;;;;42.20;39.05;;;13.90;99.90;;;;;;4958000;28;20031;-69
2023/10/20 07:27:31;;;;;;;49.15;46.28;;;13.90;99.90;;;;;;4976561;28;20395;-69
2023/10/20 07:29:57;;;;;;;54.22;50.60;;;14.00;99.90;;;;;;4976153;28;20038;-70
2023/10/20 07:32:25;;;;;;;39.03;36.50;;;14.00;99.90;;;;;;4975968;28;20054;-69
2023/10/20 07:34:51;;;;;;;46.58;43.60;;;14.10;99.90;;;;;;4975397;28;20043;-68
2023/10/20 07:37:17;;;;;;;65.88;62.00;;;14.20;99.90;;;;;;4963927;28;20059;-68
2023/10/20 07:39:44;;;;;;;35.00;32.47;;;14.30;99.90;;;;;;4972763;28;20416;-70
2023/10/20 07:42:10;;;;;;;36.97;34.35;;;14.50;99.90;;;;;;4968548;28;20046;-68
2023/10/20 07:44:36;;;;;;;32.38;29.88;;;14.40;99.90;;;;;;4960770;28;20198;-71
2023/10/20 07:47:02;;;;;;;37.10;34.78;;;14.40;99.90;;;;;;4971391;28;20042;-68
2023/10/20 07:49:28;;;;;;;32.88;30.30;;;14.40;99.90;;;;;;4962932;28;20456;-68
2023/10/20 07:51:54;;;;;;;46.83;43.95;;;14.50;99.90;;;;;;4956727;28;20046;-69
2023/10/20 07:54:20;;;;;;;50.70;47.45;;;14.60;99.90;;;;;;4969297;28;20396;-68
2023/10/20 07:56:48;;;;;;;34.78;31.90;;;14.60;99.90;;;;;;4964649;28;20043;-68
2023/10/20 07:59:14;;;;;;;33.58;31.25;;;14.60;99.90;;;;;;4956818;28;20473;-68
2023/10/20 08:01:40;;;;;;;33.08;30.63;;;14.60;99.90;;;;;;4958204;28;20039;-68
2023/10/20 08:04:07;;;;;;;35.45;32.95;;;14.70;99.90;;;;;;4961705;28;20040;-68
2023/10/20 08:06:34;;;;;;;37.90;35.05;;;14.70;99.90;;;;;;4963554;28;20047;-68
2023/10/20 08:09:01;;;;;;;48.70;45.60;;;14.70;99.90;;;;;;4969029;28;20034;-68
2023/10/20 08:11:27;;;;;;;47.47;44.53;;;14.70;99.90;;;;;;4982470;28;20038;-68
2023/10/20 08:13:53;;;;;;;46.25;43.53;;;14.80;99.90;;;;;;4976454;28;20031;-68
2023/10/20 08:16:23;;;;;;;52.33;49.35;;;14.90;99.90;;;;;;4981406;28;20424;-68
2023/10/20 08:18:51;;;;;;;52.15;49.08;;;14.90;99.90;;;;;;4967175;28;20392;-68
2023/10/20 08:21:17;;;;;;;44.30;41.78;;;14.90;99.90;;;;;;4970072;28;20031;-67
2023/10/20 08:23:43;;;;;;;49.47;46.53;;;15.00;99.90;;;;;;4969870;28;20038;-67
2023/10/20 08:26:15;;;;;;;53.60;50.53;;;15.00;99.90;;;;;;4970958;28;20388;-67
2023/10/20 08:28:42;;;;;;;57.90;54.58;;;15.00;99.90;;;;;;4971762;28;20047;-68
2023/10/20 08:31:10;;;;;;;44.55;41.97;;;15.20;99.90;;;;;;4971556;28;20104;-66
2023/10/20 08:33:36;;;;;;;44.10;41.53;;;15.10;99.90;;;;;;4955608;29;20023;-69
2023/10/20 08:36:12;;;;;;;49.05;46.03;;;15.10;99.90;;;;;;4962873;28;20034;-71
2023/10/20 08:38:39;;;;;;;51.20;48.40;;;15.00;99.90;;;;;;4974627;28;20058;-72
2023/10/20 08:41:16;;;;;;;45.20;42.28;;;14.90;99.90;;;;;;4972777;28;20023;-72
2023/10/20 08:43:43;;;;;;;47.03;43.83;;;14.80;99.90;;;;;;4969620;28;20472;-72
2023/10/20 08:46:10;;;;;;;62.15;58.88;;;14.80;99.90;;;;;;4966560;28;20046;-72
2023/10/20 08:48:40;;;;;;;43.85;41.33;;;14.90;99.90;;;;;;4974260;28;20035;-72
2023/10/20 08:51:07;;;;;;;47.05;44.28;;;14.90;99.90;;;;;;4968570;28;20043;-72
2023/10/20 08:53:36;;;;;;;44.90;42.30;;;15.00;99.90;;;;;;4971287;28;20019;-71
2023/10/20 08:56:07;;;;;;;59.08;55.80;;;14.90;99.90;;;;;;4966301;28;20031;-72
2023/10/20 08:58:33;;;;;;;38.38;35.95;;;14.90;99.90;;;;;;4949459;28;20042;-72
2023/10/20 09:00:59;;;;;;;44.90;42.05;;;15.00;99.90;;;;;;4964402;28;20423;-72
2023/10/20 09:03:26;;;;;;;36.28;34.08;;;15.10;99.90;;;;;;4970852;28;20031;-72
2023/10/20 09:06:02;;;;;;;37.75;35.35;;;15.20;99.90;;;;;;4958761;28;20023;-72
2023/10/20 09:08:28;;;;;;;47.80;45.13;;;15.30;99.90;;;;;;4957186;28;20044;-72
2023/10/20 09:10:54;;;;;;;44.97;42.13;;;15.30;99.90;;;;;;4960595;28;20057;-68
2023/10/20 09:13:23;;;;;;;40.78;38.50;;;15.40;99.90;;;;;;4969199;28;20027;-67
2023/10/20 09:15:49;;;;;;;43.28;40.78;;;15.40;99.90;;;;;;4956434;28;20062;-67
2023/10/20 09:18:15;;;;;;;36.47;34.42;;;15.40;99.90;;;;;;4972571;28;20047;-67
2023/10/20 09:20:41;;;;;;;44.45;41.70;;;15.50;99.90;;;;;;4974554;28;20023;-67
2023/10/20 09:23:08;;;;;;;60.50;57.17;;;15.40;99.90;;;;;;4963925;28;20043;-67
2023/10/20 09:25:35;;;;;;;41.60;39.20;;;15.50;99.90;;;;;;4973486;28;20047;-67
2023/10/20 09:28:01;;;;;;;44.92;42.33;;;15.50;99.90;;;;;;4967965;28;20401;-67
2023/10/20 09:30:27;;;;;;;53.08;49.97;;;15.70;99.90;;;;;;4972118;28;20073;-67
2023/10/20 09:32:53;;;;;;;68.05;64.18;;;15.80;99.90;;;;;;4973197;28;20034;-66
2023/10/20 09:35:20;;;;;;;87.35;82.47;;;15.90;99.90;;;;;;4958507;28;20042;-67
2023/10/20 09:37:50;;;;;;;58.95;55.55;;;16.00;99.90;;;;;;4957551;28;20074;-66
2023/10/20 09:40:16;;;;;;;62.47;59.00;;;16.20;99.90;;;;;;4962182;28;20035;-68
2023/10/20 09:43:13;;;;;;;74.32;70.25;;;16.40;99.90;;;;;;4970904;28;20046;-66
2023/10/20 09:45:41;;;;;;;106.10;100.90;;;16.50;99.90;;;;;;4958431;28;20499;-66
2023/10/20 09:48:19;;;;;;;118.63;112.63;;;16.40;99.90;;;;;;4969038;28;20066;-66
2023/10/20 09:50:49;;;;;;;120.22;114.07;;;16.50;99.90;;;;;;4967589;28;20038;-67
2023/10/20 09:53:15;;;;;;;125.93;119.47;;;16.50;99.90;;;;;;4957835;28;20054;-66
2023/10/20 09:55:43;;;;;;;118.55;112.65;;;16.60;99.90;;;;;;4957602;28;20033;-66
2023/10/20 09:58:09;;;;;;;132.65;125.93;;;16.60;99.90;;;;;;4969894;28;20042;-66
2023/10/20 10:00:35;;;;;;;157.95;149.75;;;16.70;99.90;;;;;;4954240;28;20038;-66
2023/10/20 10:03:02;;;;;;;119.28;113.10;;;16.70;99.90;;;;;;4968825;28;20039;-66
2023/10/20 10:05:29;;;;;;;137.27;130.63;;;16.70;99.90;;;;;;4958412;28;20070;-66
2023/10/20 10:08:08;;;;;;;136.27;129.57;;;16.70;99.90;;;;;;4964311;28;20042;-66
2023/10/20 10:10:35;;;;;;;153.07;145.25;;;16.60;99.90;;;;;;4967974;28;20059;-67
2023/10/20 10:13:05;;;;;;;138.05;130.88;;;16.60;99.90;;;;;;4957318;28;20420;-71
2023/10/20 10:15:39;;;;;;;159.73;151.48;;;16.60;99.90;;;;;;4956666;28;20042;-71
2023/10/20 10:18:10;;;;;;;142.38;135.23;;;16.70;99.90;;;;;;4969083;28;20432;-71
2023/10/20 10:20:42;;;;;;;142.65;135.32;;;16.80;99.90;;;;;;4984686;28;20023;-71
2023/10/20 10:23:11;;;;;;;153.65;146.02;;;16.80;99.90;;;;;;4968642;28;20035;-71
2023/10/20 10:25:41;;;;;;;143.32;136.18;;;16.80;99.90;;;;;;4937741;29;20038;-71
2023/10/20 10:28:14;;;;;;;198.95;189.45;;;16.90;99.90;;;;;;4971154;28;20027;-70
2023/10/20 10:30:41;;;;;;;132.38;125.82;;;17.00;99.90;;;;;;4971224;28;20514;-71
2023/10/20 10:33:10;;;;;;;183.73;174.38;;;17.10;99.90;;;;;;4956965;28;20034;-72
2023/10/20 10:35:38;;;;;;;185.15;176.18;;;17.20;99.90;;;;;;4969080;28;20034;-71
2023/10/20 10:38:24;;;;;;;162.70;154.27;;;17.20;99.90;;;;;;4971325;28;20499;-72
2023/10/20 10:40:53;;;;;;;175.07;166.50;;;17.20;99.90;;;;;;4957633;28;20039;-71
2023/10/20 10:43:22;;;;;;;169.10;160.55;;;17.20;99.90;;;;;;4963824;28;20031;-72
2023/10/20 10:45:54;;;;;;;189.20;179.68;;;17.20;99.90;;;;;;4966255;28;20031;-71
2023/10/20 10:48:23;;;;;;;133.73;127.03;;;17.20;99.90;;;;;;4971624;28;20035;-72
2023/10/20 10:50:50;;;;;;;171.65;163.45;;;17.20;99.90;;;;;;4966506;28;20019;-71
2023/10/20 10:53:16;;;;;;;204.93;194.57;;;17.30;99.90;;;;;;4958412;28;20031;-71
2023/10/20 10:55:43;;;;;;;192.43;183.20;;;17.30;99.90;;;;;;4972126;28;20031;-71
2023/10/20 10:58:14;;;;;;;176.75;168.20;;;17.30;99.90;;;;;;4984412;28;20059;-72
2023/10/20 11:00:41;;;;;;;195.05;185.57;;;17.40;99.90;;;;;;4963420;28;20046;-71
2023/10/20 11:03:08;;;;;;;136.63;129.88;;;17.40;99.90;;;;;;4969177;28;20030;-72
2023/10/20 11:05:34;;;;;;;145.80;138.65;;;17.50;99.90;;;;;;4970559;28;20039;-71
2023/10/20 11:08:07;;;;;;;140.20;133.35;;;17.60;99.90;;;;;;4954830;28;20376;-71
2023/10/20 11:10:37;;;;;;;142.10;135.13;;;17.60;99.90;;;;;;4970736;28;20483;-71
2023/10/20 11:13:08;;;;;;;151.57;144.07;;;17.70;99.90;;;;;;4972484;28;20391;-70
2023/10/20 11:15:35;;;;;;;168.95;160.35;;;17.60;99.90;;;;;;4970619;28;20510;-71
2023/10/20 11:18:02;;;;;;;102.40;97.32;;;17.60;99.90;;;;;;4965322;28;20503;-72
2023/10/20 11:20:32;;;;;;;123.10;116.82;;;17.50;99.90;;;;;;4967509;28;20036;-71
2023/10/20 11:22:58;;;;;;;112.75;106.85;;;17.40;99.90;;;;;;4967835;28;20086;-71
2023/10/20 11:25:24;;;;;;;166.00;157.95;;;17.40;99.90;;;;;;4961177;28;20031;-70
2023/10/20 11:27:54;;;;;;;125.57;119.43;;;17.50;99.90;;;;;;4959215;28;20065;-70
2023/10/20 11:30:27;;;;;;;110.70;105.05;;;17.50;99.90;;;;;;4964908;28;20038;-70
2023/10/20 11:32:53;;;;;;;124.40;117.90;;;17.50;99.90;;;;;;4953120;28;20396;-71
2023/10/20 11:35:26;;;;;;;164.70;156.35;;;17.50;99.90;;;;;;4953665;28;20023;-71
2023/10/20 11:37:59;;;;;;;150.60;143.02;;;17.60;99.90;;;;;;4967329;28;20050;-71
2023/10/20 11:40:28;;;;;;;165.95;157.52;;;17.80;99.90;;;;;;4965398;28;20046;-71
2023/10/20 11:42:55;;;;;;;178.20;169.45;;;18.00;99.90;;;;;;4960736;28;20030;-69
2023/10/20 11:45:21;;;;;;;191.93;182.10;;;17.90;99.90;;;;;;4958006;28;20032;-71
2023/10/20 11:47:47;;;;;;;141.20;134.32;;;17.80;99.90;;;;;;4968232;28;20047;-71
2023/10/20 11:50:18;;;;;;;186.85;177.35;;;17.70;99.90;;;;;;4953267;28;20468;-70
2023/10/20 11:52:45;;;;;;;176.65;167.65;;;17.60;99.90;;;;;;4968861;28;20036;-71
2023/10/20 11:55:11;;;;;;;145.05;138.00;;;17.40;99.90;;;;;;4970774;28;20043;-71
2023/10/20 11:57:38;;;;;;;155.18;147.65;;;17.50;99.90;;;;;;4953796;28;20066;-71
2023/10/20 12:00:09;;;;;;;157.63;149.68;;;17.40;99.90;;;;;;4955084;28;20035;-71
2023/10/20 12:02:35;;;;;;;174.52;165.88;;;17.20;99.90;;;;;;4958014;28;20496;-71
2023/10/20 12:05:01;;;;;;;134.10;126.85;;;17.20;99.90;;;;;;4956444;28;20051;-70
2023/10/20 12:07:28;;;;;;;125.32;119.03;;;17.10;99.90;;;;;;4956804;28;20031;-71
2023/10/20 12:09:54;;;;;;;126.10;119.75;;;17.00;99.90;;;;;;4957164;29;20023;-71
2023/10/20 12:12:20;;;;;;;201.68;191.80;;;17.10;99.90;;;;;;4970202;28;20034;-71
2023/10/20 12:14:46;;;;;;;128.02;121.60;;;17.10;99.90;;;;;;4971817;28;20389;-71
2023/10/20 12:17:12;;;;;;;145.40;138.15;;;17.20;99.90;;;;;;4956285;28;20505;-72
2023/10/20 12:19:39;;;;;;;141.65;134.05;;;17.20;99.90;;;;;;4970918;28;20031;-71
2023/10/20 12:22:05;;;;;;;133.57;126.55;;;17.10;99.90;;;;;;4960409;28;20039;-71
2023/10/20 12:24:31;;;;;;;131.32;124.50;;;17.10;99.90;;;;;;4955764;29;20386;-71
2023/10/20 12:26:59;;;;;;;146.35;138.80;;;17.10;99.90;;;;;;4956518;28;20492;-71
2023/10/20 12:29:25;;;;;;;227.55;216.48;;;17.10;99.90;;;;;;4956607;28;20040;-71
2023/10/20 12:31:51;;;;;;;138.30;131.18;;;17.30;99.90;;;;;;4955955;28;20046;-71
2023/10/20 12:34:18;;;;;;;136.63;129.68;;;17.30;99.90;;;;;;4955468;29;20373;-71
2023/10/20 12:36:45;;;;;;;189.07;179.55;;;17.30;99.90;;;;;;4952716;28;20038;-71
2023/10/20 12:39:17;;;;;;;153.88;146.15;;;17.30;99.90;;;;;;4975827;28;20043;-74
2023/10/20 12:41:46;;;;;;;145.02;137.65;;;17.30;99.90;;;;;;4962174;28;20031;-74
2023/10/20 12:44:12;;;;;;;161.40;153.38;;;17.20;99.90;;;;;;4955589;29;20028;-74
2023/10/20 12:46:38;;;;;;;132.80;125.97;;;17.10;99.90;;;;;;4954658;28;20039;-75
2023/10/20 12:49:06;;;;;;;173.50;164.85;;;17.00;99.90;;;;;;4956266;29;20396;-74
2023/10/20 12:51:33;;;;;;;166.13;158.27;;;17.10;99.90;;;;;;4981735;28;20491;-74
2023/10/20 12:54:01;;;;;;;169.85;161.35;;;17.10;99.90;;;;;;4958407;28;20555;-74